Ryuhomaru — JD2639 — position and weather

sailwx.info

Track history (hours):
 
Tides and Currents Weather Stations Pressure Air Temp Water Temp Dewpoint Dewpoint Depression Visibility Wind Speed Wind Dir Waves Ship Positions

Ryuhomaru

Last reported at 2017-Sep-25 08:21 UTC. Time now 2017-Sep-25 18:57 UTC.
Position N 34°33' E 135°27'.

Length 42 m; draft 3.5 m.

Type: Tug. MMSI: 431000586.

Date/timePositionNaut miles runAvg speedWind from/ knotsBaromVisibWave heightAir tempDewpointWater temp
2017-Sep-25 08:21N 34°33' E 135°27'2 6.0
2017-Sep-25 08:00N 34°33' E 135°24'2 3.9
2017-Sep-25 07:30N 34°31' E 135°25'1 1.3
2017-Sep-25 06:59N 34°32' E 135°24'2 5.0
2017-Sep-25 06:30N 34°33' E 135°27'0 0.0
2017-Sep-25 06:00N 34°33' E 135°27'0 0.0
2017-Sep-25 05:30N 34°33' E 135°27'0 0.0
2017-Sep-25 05:00N 34°33' E 135°27'0 0.0
2017-Sep-25 04:29N 34°33' E 135°27'0 0.0
2017-Sep-25 03:58N 34°33' E 135°27'1 1.1
2017-Sep-25 03:27N 34°33' E 135°26'0 0.1
2017-Sep-25 03:00N 34°33' E 135°26'0 0.0
2017-Sep-25 02:30N 34°33' E 135°26'0 0.0
2017-Sep-25 02:00N 34°33' E 135°26'0 0.3
2017-Sep-25 01:30N 34°33' E 135°26'1 2.1
2017-Sep-25 01:00N 34°33' E 135°25'3 6.4
2017-Sep-25 00:30N 34°33' E 135°21'2 4.1
2017-Sep-25 00:00N 34°34' E 135°18'4 7.1
2017-Sep-24 23:30N 34°34' E 135°23'3 6.5
2017-Sep-24 23:00N 34°33' E 135°27'0 0.0
2017-Sep-24 22:30N 34°33' E 135°27'0 0.0
2017-Sep-24 22:00N 34°33' E 135°27'0 0.0
2017-Sep-24 06:55N 34°33' E 135°27'2 3.8
2017-Sep-24 06:27N 34°33' E 135°24'1 1.9
2017-Sep-24 06:00N 34°33' E 135°25'0 0.7
2017-Sep-24 05:24N 34°32' E 135°25'1 2.7
2017-Sep-24 05:00N 34°33' E 135°24'2 1.8
2017-Sep-24 03:39N 34°31' E 135°23'0 2.3
2017-Sep-24 03:27N 34°31' E 135°24'2 5.5
2017-Sep-24 03:00N 34°33' E 135°24'0 0.1
2017-Sep-24 02:29N 34°33' E 135°24'1 1.3
2017-Sep-24 01:57N 34°33' E 135°23'3 6.3
2017-Sep-24 01:30N 34°33' E 135°20'2 3.7
2017-Sep-24 01:00N 34°32' E 135°18'2 5.0
2017-Sep-24 00:30N 34°33' E 135°21'4 8.8
2017-Sep-24 00:00N 34°33' E 135°26'1 0.0
2017-Sep-22 01:59N 34°33' E 135°26'2 4.0
2017-Sep-22 01:23N 34°33' E 135°23'2 5.7
2017-Sep-22 00:59N 34°34' E 135°20'0 0.2
2017-Sep-22 00:30N 34°34' E 135°20'1 2.7
2017-Sep-22 00:00N 34°32' E 135°20'4 7.8
2017-Sep-21 23:30N 34°28' E 135°19'3 5.2
2017-Sep-21 23:00N 34°26' E 135°19'1 1.8
2017-Sep-21 22:27N 34°27' E 135°19'0 0.9
2017-Sep-21 21:58N 34°27' E 135°19'5 9.8
2017-Sep-21 21:29N 34°31' E 135°22'4 0.2
2017-Sep-21 01:46N 34°33' E 135°27'0 0.0
2017-Sep-21 01:05N 34°33' E 135°27'3 7.7
2017-Sep-21 00:42N 34°33' E 135°23'2 6.5
2017-Sep-21 00:27N 34°33' E 135°25'1 1.1
2017-Sep-20 23:41N 34°33' E 135°26'0 0.3
2017-Sep-20 23:28N 34°33' E 135°26'0 0.5
2017-Sep-20 23:00N 34°33' E 135°26'1 0.0
2017-Sep-19 09:25N 34°33' E 135°27'4 6.4
2017-Sep-19 08:46N 34°33' E 135°22'413.3
2017-Sep-19 08:30N 34°33' E 135°17'714.0
2017-Sep-19 08:00N 34°34' E 135°09'713.5
2017-Sep-19 07:29N 34°37' E 135°01'12 1.1
2017-Sep-18 21:16N 34°40' E 134°48'5 5.7
2017-Sep-18 20:21N 34°39' E 134°53'412.6
2017-Sep-18 20:00N 34°38' E 134°59'611.3
2017-Sep-18 19:31N 34°37' E 135°05'612.0
2017-Sep-18 19:01N 34°36' E 135°13'612.1
2017-Sep-18 18:31N 34°34' E 135°20'510.8
2017-Sep-18 18:00N 34°33' E 135°26'0 0.8
2017-Sep-18 17:31N 34°33' E 135°27'0 0.0
2017-Sep-18 17:01N 34°33' E 135°27'0 0.0
2017-Sep-18 16:30N 34°33' E 135°27'0 0.0
2017-Sep-18 16:01N 34°33' E 135°27'0 0.0
2017-Sep-18 15:30N 34°33' E 135°27'0 0.0
2017-Sep-18 14:53N 34°33' E 135°27'0 0.0
2017-Sep-18 14:21N 34°33' E 135°27'0 0.0
2017-Sep-18 14:00N 34°33' E 135°27'0 0.0
2017-Sep-18 13:29N 34°33' E 135°27'0 0.0
2017-Sep-18 11:55N 34°33' E 135°27'0 0.0
2017-Sep-18 11:12N 34°33' E 135°27'0 0.0
2017-Sep-18 11:01N 34°33' E 135°27'0 0.0
2017-Sep-18 10:21N 34°33' E 135°27'0 0.0
2017-Sep-18 10:00N 34°33' E 135°27'0 0.0
2017-Sep-18 09:31N 34°33' E 135°27'0 0.0
2017-Sep-18 09:00N 34°33' E 135°27'0 0.0
2017-Sep-18 08:27N 34°33' E 135°27'0 0.0
2017-Sep-18 07:51N 34°33' E 135°27'0 0.0
2017-Sep-18 07:19N 34°33' E 135°27'3 9.3
2017-Sep-18 07:00N 34°35' E 135°24'4 9.0
2017-Sep-18 06:30N 34°39' E 135°25'0 0.0
2017-Sep-18 05:59N 34°39' E 135°25'2 3.5
2017-Sep-18 05:31N 34°38' E 135°24'5 9.7
2017-Sep-18 04:58N 34°33' E 135°26'0 0.7
2017-Sep-18 04:23N 34°33' E 135°27'0 0.0
2017-Sep-18 03:59N 34°33' E 135°27'0 0.0
2017-Sep-18 03:20N 34°33' E 135°27'0 0.0
2017-Sep-18 02:52N 34°33' E 135°27'0 0.0
2017-Sep-18 02:31N 34°33' E 135°27'0 0.0
2017-Sep-18 01:59N 34°33' E 135°27'0 0.0
2017-Sep-18 01:30N 34°33' E 135°27'0 0.0
2017-Sep-18 00:59N 34°33' E 135°27'0 0.0
2017-Sep-18 00:30N 34°33' E 135°27'0 0.0
2017-Sep-18 00:00N 34°33' E 135°27'0 0.0
2017-Sep-17 23:26N 34°33' E 135°27'0 0.0
2017-Sep-17 23:01N 34°33' E 135°27'0 0.0
2017-Sep-17 22:31N 34°33' E 135°27'0 0.0
2017-Sep-17 22:01N 34°33' E 135°27'0 0.0
2017-Sep-17 21:30N 34°33' E 135°27'0 0.0
2017-Sep-17 21:01N 34°33' E 135°27'0 0.0
2017-Sep-17 20:30N 34°33' E 135°27'0 0.0
2017-Sep-17 20:01N 34°33' E 135°27'0 0.0
2017-Sep-17 19:31N 34°33' E 135°27'0 0.0
2017-Sep-17 19:00N 34°33' E 135°27'0 0.0
2017-Sep-17 18:30N 34°33' E 135°27'0 0.0
2017-Sep-17 18:00N 34°33' E 135°27'0 0.0
2017-Sep-17 17:31N 34°33' E 135°27'0 0.0
2017-Sep-17 17:00N 34°33' E 135°27'0 0.0
2017-Sep-17 16:27N 34°33' E 135°27'0 0.0
2017-Sep-17 16:01N 34°33' E 135°27'0 0.0
2017-Sep-17 15:30N 34°33' E 135°27'0 0.0
2017-Sep-17 15:00N 34°33' E 135°27'0 0.0
2017-Sep-17 14:30N 34°33' E 135°27'0 0.0
2017-Sep-17 13:40N 34°33' E 135°27'0 0.0
2017-Sep-17 13:10N 34°33' E 135°27'0 0.0
2017-Sep-17 12:48N 34°33' E 135°27'0 0.0
2017-Sep-17 12:24N 34°33' E 135°27'0 0.0
2017-Sep-17 11:51N 34°33' E 135°27'0 0.0
2017-Sep-17 11:08N 34°33' E 135°27'0 0.0
2017-Sep-17 10:15N 34°33' E 135°27'0 0.0
2017-Sep-17 10:00N 34°33' E 135°27'0 0.0
2017-Sep-17 09:26N 34°33' E 135°27'0 0.0
2017-Sep-17 08:56N 34°33' E 135°27'0 0.0
2017-Sep-17 08:26N 34°33' E 135°27'0 0.0
2017-Sep-17 08:00N 34°33' E 135°27'0 0.0
2017-Sep-17 06:33N 34°33' E 135°27'0 0.0
2017-Sep-17 06:04N 34°33' E 135°27'0 0.1
2017-Sep-17 05:58N 34°33' E 135°27'0 0.0
2017-Sep-17 05:28N 34°33' E 135°27'0 0.0
2017-Sep-17 04:38N 34°33' E 135°27'  
Track history (hours):
 
Tides and Currents Weather Stations Pressure Air Temp Water Temp Dewpoint Dewpoint Depression Visibility Wind Speed Wind Dir Waves Ship Positions

Ryuhomaru

Last reported at 2017-Sep-25 08:21 UTC. Time now 2017-Sep-25 18:57 UTC.
Position N 34°33' E 135°27'.

Length 42 m; draft 3.5 m.

Type: Tug. MMSI: 431000586.

Date/timePositionNaut miles runAvg speedWind from/ knotsBaromVisibWave heightAir tempDewpointWater temp
2017-Sep-25 08:21N 34°33' E 135°27'2 6.0
2017-Sep-25 08:00N 34°33' E 135°24'2 3.9
2017-Sep-25 07:30N 34°31' E 135°25'1 1.3
2017-Sep-25 06:59N 34°32' E 135°24'2 5.0
2017-Sep-25 06:30N 34°33' E 135°27'0 0.0
2017-Sep-25 06:00N 34°33' E 135°27'0 0.0
2017-Sep-25 05:30N 34°33' E 135°27'0 0.0
2017-Sep-25 05:00N 34°33' E 135°27'0 0.0
2017-Sep-25 04:29N 34°33' E 135°27'0 0.0
2017-Sep-25 03:58N 34°33' E 135°27'1 1.1
2017-Sep-25 03:27N 34°33' E 135°26'0 0.1
2017-Sep-25 03:00N 34°33' E 135°26'0 0.0
2017-Sep-25 02:30N 34°33' E 135°26'0 0.0
2017-Sep-25 02:00N 34°33' E 135°26'0 0.3
2017-Sep-25 01:30N 34°33' E 135°26'1 2.1
2017-Sep-25 01:00N 34°33' E 135°25'3 6.4
2017-Sep-25 00:30N 34°33' E 135°21'2 4.1
2017-Sep-25 00:00N 34°34' E 135°18'4 7.1
2017-Sep-24 23:30N 34°34' E 135°23'3 6.5
2017-Sep-24 23:00N 34°33' E 135°27'0 0.0
2017-Sep-24 22:30N 34°33' E 135°27'0 0.0
2017-Sep-24 22:00N 34°33' E 135°27'0 0.0
2017-Sep-24 06:55N 34°33' E 135°27'2 3.8
2017-Sep-24 06:27N 34°33' E 135°24'1 1.9
2017-Sep-24 06:00N 34°33' E 135°25'0 0.7
2017-Sep-24 05:24N 34°32' E 135°25'1 2.7
2017-Sep-24 05:00N 34°33' E 135°24'2 1.8
2017-Sep-24 03:39N 34°31' E 135°23'0 2.3
2017-Sep-24 03:27N 34°31' E 135°24'2 5.5
2017-Sep-24 03:00N 34°33' E 135°24'0 0.1
2017-Sep-24 02:29N 34°33' E 135°24'1 1.3
2017-Sep-24 01:57N 34°33' E 135°23'3 6.3
2017-Sep-24 01:30N 34°33' E 135°20'2 3.7
2017-Sep-24 01:00N 34°32' E 135°18'2 5.0
2017-Sep-24 00:30N 34°33' E 135°21'4 8.8
2017-Sep-24 00:00N 34°33' E 135°26'1 0.0
2017-Sep-22 01:59N 34°33' E 135°26'2 4.0
2017-Sep-22 01:23N 34°33' E 135°23'2 5.7
2017-Sep-22 00:59N 34°34' E 135°20'0 0.2
2017-Sep-22 00:30N 34°34' E 135°20'1 2.7
2017-Sep-22 00:00N 34°32' E 135°20'4 7.8
2017-Sep-21 23:30N 34°28' E 135°19'3 5.2
2017-Sep-21 23:00N 34°26' E 135°19'1 1.8
2017-Sep-21 22:27N 34°27' E 135°19'0 0.9
2017-Sep-21 21:58N 34°27' E 135°19'5 9.8
2017-Sep-21 21:29N 34°31' E 135°22'4 0.2
2017-Sep-21 01:46N 34°33' E 135°27'0 0.0
2017-Sep-21 01:05N 34°33' E 135°27'3 7.7
2017-Sep-21 00:42N 34°33' E 135°23'2 6.5
2017-Sep-21 00:27N 34°33' E 135°25'1 1.1
2017-Sep-20 23:41N 34°33' E 135°26'0 0.3
2017-Sep-20 23:28N 34°33' E 135°26'0 0.5
2017-Sep-20 23:00N 34°33' E 135°26'1 0.0
2017-Sep-19 09:25N 34°33' E 135°27'4 6.4
2017-Sep-19 08:46N 34°33' E 135°22'413.3
2017-Sep-19 08:30N 34°33' E 135°17'714.0
2017-Sep-19 08:00N 34°34' E 135°09'713.5
2017-Sep-19 07:29N 34°37' E 135°01'12 1.1
2017-Sep-18 21:16N 34°40' E 134°48'5 5.7
2017-Sep-18 20:21N 34°39' E 134°53'412.6
2017-Sep-18 20:00N 34°38' E 134°59'611.3
2017-Sep-18 19:31N 34°37' E 135°05'612.0
2017-Sep-18 19:01N 34°36' E 135°13'612.1
2017-Sep-18 18:31N 34°34' E 135°20'510.8
2017-Sep-18 18:00N 34°33' E 135°26'0 0.8
2017-Sep-18 17:31N 34°33' E 135°27'0 0.0
2017-Sep-18 17:01N 34°33' E 135°27'0 0.0
2017-Sep-18 16:30N 34°33' E 135°27'0 0.0
2017-Sep-18 16:01N 34°33' E 135°27'0 0.0
2017-Sep-18 15:30N 34°33' E 135°27'0 0.0
2017-Sep-18 14:53N 34°33' E 135°27'0 0.0
2017-Sep-18 14:21N 34°33' E 135°27'0 0.0
2017-Sep-18 14:00N 34°33' E 135°27'0 0.0
2017-Sep-18 13:29N 34°33' E 135°27'0 0.0
2017-Sep-18 11:55N 34°33' E 135°27'0 0.0
2017-Sep-18 11:12N 34°33' E 135°27'0 0.0
2017-Sep-18 11:01N 34°33' E 135°27'0 0.0
2017-Sep-18 10:21N 34°33' E 135°27'0 0.0
2017-Sep-18 10:00N 34°33' E 135°27'0 0.0
2017-Sep-18 09:31N 34°33' E 135°27'0 0.0
2017-Sep-18 09:00N 34°33' E 135°27'0 0.0
2017-Sep-18 08:27N 34°33' E 135°27'0 0.0
2017-Sep-18 07:51N 34°33' E 135°27'0 0.0
2017-Sep-18 07:19N 34°33' E 135°27'3 9.3
2017-Sep-18 07:00N 34°35' E 135°24'4 9.0
2017-Sep-18 06:30N 34°39' E 135°25'0 0.0
2017-Sep-18 05:59N 34°39' E 135°25'2 3.5
2017-Sep-18 05:31N 34°38' E 135°24'5 9.7
2017-Sep-18 04:58N 34°33' E 135°26'0 0.7
2017-Sep-18 04:23N 34°33' E 135°27'0 0.0
2017-Sep-18 03:59N 34°33' E 135°27'0 0.0
2017-Sep-18 03:20N 34°33' E 135°27'0 0.0
2017-Sep-18 02:52N 34°33' E 135°27'0 0.0
2017-Sep-18 02:31N 34°33' E 135°27'0 0.0
2017-Sep-18 01:59N 34°33' E 135°27'0 0.0
2017-Sep-18 01:30N 34°33' E 135°27'0 0.0
2017-Sep-18 00:59N 34°33' E 135°27'0 0.0
2017-Sep-18 00:30N 34°33' E 135°27'0 0.0
2017-Sep-18 00:00N 34°33' E 135°27'0 0.0
2017-Sep-17 23:26N 34°33' E 135°27'0 0.0
2017-Sep-17 23:01N 34°33' E 135°27'0 0.0
2017-Sep-17 22:31N 34°33' E 135°27'0 0.0
2017-Sep-17 22:01N 34°33' E 135°27'0 0.0
2017-Sep-17 21:30N 34°33' E 135°27'0 0.0
2017-Sep-17 21:01N 34°33' E 135°27'0 0.0
2017-Sep-17 20:30N 34°33' E 135°27'0 0.0
2017-Sep-17 20:01N 34°33' E 135°27'0 0.0
2017-Sep-17 19:31N 34°33' E 135°27'0 0.0
2017-Sep-17 19:00N 34°33' E 135°27'0 0.0
2017-Sep-17 18:30N 34°33' E 135°27'0 0.0
2017-Sep-17 18:00N 34°33' E 135°27'0 0.0
2017-Sep-17 17:31N 34°33' E 135°27'0 0.0
2017-Sep-17 17:00N 34°33' E 135°27'0 0.0
2017-Sep-17 16:27N 34°33' E 135°27'0 0.0
2017-Sep-17 16:01N 34°33' E 135°27'0 0.0
2017-Sep-17 15:30N 34°33' E 135°27'0 0.0
2017-Sep-17 15:00N 34°33' E 135°27'0 0.0
2017-Sep-17 14:30N 34°33' E 135°27'0 0.0
2017-Sep-17 13:40N 34°33' E 135°27'0 0.0
2017-Sep-17 13:10N 34°33' E 135°27'0 0.0
2017-Sep-17 12:48N 34°33' E 135°27'0 0.0
2017-Sep-17 12:24N 34°33' E 135°27'0 0.0
2017-Sep-17 11:51N 34°33' E 135°27'0 0.0
2017-Sep-17 11:08N 34°33' E 135°27'0 0.0
2017-Sep-17 10:15N 34°33' E 135°27'0 0.0
2017-Sep-17 10:00N 34°33' E 135°27'0 0.0
2017-Sep-17 09:26N 34°33' E 135°27'0 0.0
2017-Sep-17 08:56N 34°33' E 135°27'0 0.0
2017-Sep-17 08:26N 34°33' E 135°27'0 0.0
2017-Sep-17 08:00N 34°33' E 135°27'0 0.0
2017-Sep-17 06:33N 34°33' E 135°27'0 0.0
2017-Sep-17 06:04N 34°33' E 135°27'0 0.1
2017-Sep-17 05:58N 34°33' E 135°27'0 0.0
2017-Sep-17 05:28N 34°33' E 135°27'0 0.0
2017-Sep-17 04:38N 34°33' E 135°27'  

Dump ship's entire track history